Time;durP1;ratioP1;P1;durP2;ratioP2;P2;SDS_P1;SDS_P2;PMS_P1;PMS_P2;Temp;Humidity;BMP_temperature;BMP_pressure;BME280_temperature;BME280_humidity;BME280_pressure;Samples;Min_cycle;Max_cycle;Signal;HPM_P1;HPM_P2
2023/03/13 00:00:56;;;;;;;0.10;0.10;;;0.90;99.90;;;;;;5081298;28;20023;-75
2023/03/13 00:03:22;;;;;;;1.33;1.33;;;0.90;99.90;;;;;;5099812;28;20312;-75
2023/03/13 00:05:49;;;;;;;0.20;0.20;;;0.90;99.90;;;;;;5081219;28;20594;-74
2023/03/13 00:08:15;;;;;;;0.20;0.20;;;0.80;99.90;;;;;;5099706;28;20576;-74
2023/03/13 00:10:41;;;;;;;0.10;0.10;;;1.30;99.90;;;;;;5099200;28;20024;-75
2023/03/13 00:13:07;;;;;;;0.20;0.20;;;0.80;99.90;;;;;;5099861;28;20274;-75
2023/03/13 00:15:34;;;;;;;0.20;0.20;;;0.80;99.90;;;;;;5099584;28;20245;-74
2023/03/13 00:17:59;;;;;;;0.20;0.20;;;1.00;99.90;;;;;;5100371;28;20024;-75
2023/03/13 00:20:26;;;;;;;2.37;2.27;;;-3.10;99.90;;;;;;5100636;28;20020;-75
2023/03/13 00:22:52;;;;;;;0.20;0.20;;;-1.60;99.90;;;;;;5101285;28;20023;-74
2023/03/13 00:25:18;;;;;;;0.20;0.20;;;0.70;99.90;;;;;;5100173;28;20099;-74
2023/03/13 00:27:44;;;;;;;0.20;0.20;;;0.70;99.90;;;;;;5100722;28;20509;-75
2023/03/13 00:30:11;;;;;;;0.20;0.20;;;0.70;99.90;;;;;;5100410;28;20027;-74
2023/03/13 00:32:45;;;;;;;0.20;0.20;;;0.50;99.90;;;;;;5099065;28;20051;-74
2023/03/13 00:35:12;;;;;;;0.20;0.20;;;0.50;99.90;;;;;;5080669;28;20027;-76
2023/03/13 00:37:38;;;;;;;0.17;0.17;;;;;;;;;;5099519;28;20028;-75
2023/03/13 00:40:05;;;;;;;0.20;0.20;;;0.50;99.90;;;;;;5099254;28;20027;-75
2023/03/13 00:42:31;;;;;;;0.20;0.20;;;0.50;99.90;;;;;;5100402;28;20193;-75
2023/03/13 00:44:57;;;;;;;0.20;0.20;;;0.50;99.90;;;;;;5099444;28;20373;-75
2023/03/13 00:47:22;;;;;;;0.20;0.20;;;0.50;99.90;;;;;;5098611;28;20066;-74
2023/03/13 00:49:49;;;;;;;0.20;0.20;;;0.50;99.90;;;;;;5098959;28;20192;-75
2023/03/13 00:52:14;;;;;;;0.20;0.20;;;0.50;99.90;;;;;;5098704;28;20596;-74
2023/03/13 00:54:40;;;;;;;0.20;0.20;;;0.50;99.90;;;;;;5098319;28;20080;-74
2023/03/13 00:57:06;;;;;;;0.20;0.20;;;0.50;99.90;;;;;;5099311;28;20027;-74
2023/03/13 00:59:32;;;;;;;0.17;0.17;;;0.50;99.90;;;;;;5102477;28;20051;-75
2023/03/13 01:01:58;;;;;;;0.20;0.20;;;0.50;99.90;;;;;;5103488;28;20107;-75
2023/03/13 01:04:23;;;;;;;0.20;0.20;;;0.50;99.90;;;;;;5102765;28;20415;-75
2023/03/13 01:06:49;;;;;;;0.20;0.20;;;0.40;99.90;;;;;;5103573;28;20054;-75
2023/03/13 01:09:15;;;;;;;0.10;0.10;;;0.40;99.90;;;;;;5103357;28;20203;-74
2023/03/13 01:11:43;;;;;;;0.20;0.20;;;0.40;99.90;;;;;;5102970;28;20031;-74
2023/03/13 01:14:14;;;;;;;0.23;0.23;;;0.40;99.90;;;;;;5103373;28;20111;-74
2023/03/13 01:16:41;;;;;;;0.20;0.20;;;0.50;99.90;;;;;;5103043;28;20036;-75
2023/03/13 01:19:12;;;;;;;0.20;0.20;;;0.40;99.90;;;;;;5103194;28;20020;-74
2023/03/13 01:21:39;;;;;;;0.20;0.20;;;0.40;99.90;;;;;;5103460;28;20027;-75
2023/03/13 01:24:05;;;;;;;0.20;0.20;;;0.40;99.90;;;;;;5101019;28;20533;-75
2023/03/13 01:26:31;;;;;;;0.20;0.20;;;0.70;99.90;;;;;;5102993;28;20234;-75
2023/03/13 01:28:57;;;;;;;0.20;0.20;;;;;;;;;;5090875;28;20020;-75
2023/03/13 01:31:27;;;;;;;0.20;0.20;;;0.50;99.90;;;;;;5110377;28;20320;-75
2023/03/13 01:33:58;;;;;;;4.70;4.43;;;0.70;99.90;;;;;;5091349;28;20020;-76
2023/03/13 01:36:24;;;;;;;0.20;0.20;;;0.40;99.90;;;;;;5107541;28;20245;-74
2023/03/13 01:38:52;;;;;;;0.20;0.20;;;0.50;99.90;;;;;;5102731;28;20031;-74
2023/03/13 01:41:19;;;;;;;0.20;0.20;;;0.40;99.90;;;;;;5102592;28;20335;-74
2023/03/13 01:43:45;;;;;;;0.10;0.10;;;0.40;99.90;;;;;;5102660;28;20031;-75
2023/03/13 01:46:13;;;;;;;0.20;0.20;;;0.40;99.90;;;;;;5083995;28;20061;-74
2023/03/13 01:48:50;;;;;;;0.20;0.20;;;0.40;99.90;;;;;;5102365;28;20023;-75
2023/03/13 01:51:18;;;;;;;0.20;0.20;;;0.40;99.90;;;;;;5102677;28;20052;-74
2023/03/13 01:53:48;;;;;;;0.20;0.20;;;0.40;99.90;;;;;;5083341;28;20394;-74
2023/03/13 01:56:21;;;;;;;0.20;0.20;;;0.20;99.90;;;;;;5084023;28;20026;-75
2023/03/13 01:58:49;;;;;;;0.57;0.57;;;0.40;99.90;;;;;;5101826;28;20383;-75
2023/03/13 02:01:17;;;;;;;0.20;0.20;;;0.40;99.90;;;;;;5102479;28;20441;-74
2023/03/13 02:03:43;;;;;;;0.20;0.20;;;0.30;99.90;;;;;;5101764;28;20023;-75
2023/03/13 02:06:10;;;;;;;0.20;0.20;;;0.30;99.90;;;;;;5101541;28;20730;-74
2023/03/13 02:08:48;;;;;;;0.20;0.20;;;0.40;99.90;;;;;;5100902;28;20031;-75
2023/03/13 02:11:26;;;;;;;0.20;0.20;;;0.30;99.90;;;;;;5101530;28;20415;-75
2023/03/13 02:13:53;;;;;;;0.20;0.20;;;0.40;99.90;;;;;;5083154;28;20107;-74
2023/03/13 02:16:20;;;;;;;0.10;0.10;;;0.40;99.90;;;;;;5103644;28;20073;-76
2023/03/13 02:18:47;;;;;;;0.20;0.20;;;0.40;99.90;;;;;;5105670;28;20111;-74
2023/03/13 02:21:44;;;;;;;0.20;0.20;;;0.40;99.90;;;;;;5103426;28;20032;-74
2023/03/13 02:24:26;;;;;;;0.20;0.20;;;0.20;99.90;;;;;;5105147;28;20031;-75
2023/03/13 02:26:53;;;;;;;24.40;8.33;;;0.20;99.90;;;;;;5105884;28;20169;-75
2023/03/13 02:29:19;;;;;;;2.27;2.20;;;0.10;99.90;;;;;;5103471;28;20058;-75
2023/03/13 02:31:49;;;;;;;0.20;0.20;;;0.10;99.90;;;;;;5103368;28;20018;-75
2023/03/13 02:34:20;;;;;;;0.20;0.20;;;0.00;99.90;;;;;;5102135;28;20020;-75
2023/03/13 02:36:48;;;;;;;0.20;0.20;;;0.00;99.90;;;;;;5101953;28;20575;-77
2023/03/13 02:39:17;;;;;;;0.27;0.27;;;0.00;99.90;;;;;;5102431;28;20233;-75
2023/03/13 02:41:45;;;;;;;0.20;0.20;;;-0.10;99.90;;;;;;5103656;28;20024;-74
2023/03/13 02:44:11;;;;;;;0.30;0.30;;;-0.10;99.90;;;;;;5102969;28;20555;-74
2023/03/13 02:46:51;;;;;;;0.20;0.20;;;-0.10;99.90;;;;;;5101906;28;20016;-75
2023/03/13 02:49:28;;;;;;;0.20;0.20;;;-0.10;99.90;;;;;;5102210;28;20223;-75
2023/03/13 02:51:58;;;;;;;0.40;0.40;;;-0.10;99.90;;;;;;5103619;28;20270;-75
2023/03/13 02:54:30;;;;;;;0.20;0.20;;;-0.10;99.90;;;;;;5102646;28;20069;-75
2023/03/13 02:56:59;;;;;;;0.20;0.20;;;-0.10;99.90;;;;;;5101228;28;20123;-74
2023/03/13 02:59:27;;;;;;;2.20;2.10;;;-0.10;99.90;;;;;;5101930;28;20058;-75
2023/03/13 03:01:53;;;;;;;0.20;0.20;;;-0.10;99.90;;;;;;5101574;28;20016;-74
2023/03/13 03:04:23;;;;;;;0.20;0.20;;;-0.10;99.90;;;;;;5103546;28;20322;-75
2023/03/13 03:06:50;;;;;;;0.67;0.67;;;-0.10;99.90;;;;;;5101242;28;20041;-74
2023/03/13 03:09:19;;;;;;;12.67;11.43;;;-0.10;99.90;;;;;;5100591;28;20022;-75
2023/03/13 03:11:45;;;;;;;0.10;0.10;;;-0.10;99.90;;;;;;5101867;28;20020;-75
2023/03/13 03:14:11;;;;;;;0.20;0.20;;;-0.10;99.90;;;;;;5103080;28;20031;-75
2023/03/13 03:16:38;;;;;;;0.20;0.20;;;-0.10;99.90;;;;;;5104831;28;20219;-75
2023/03/13 03:19:05;;;;;;;0.20;0.20;;;-0.10;99.90;;;;;;5109628;28;20490;-75
2023/03/13 03:21:31;;;;;;;0.20;0.20;;;-0.20;99.90;;;;;;5106861;28;20072;-75
2023/03/13 03:23:57;;;;;;;0.20;0.20;;;-0.20;99.90;;;;;;5107666;28;20061;-75
2023/03/13 03:26:23;;;;;;;0.20;0.20;;;-0.20;99.90;;;;;;5109202;28;20250;-75
2023/03/13 03:28:49;;;;;;;0.20;0.20;;;-0.30;99.90;;;;;;5106846;28;20097;-74
2023/03/13 03:31:16;;;;;;;0.20;0.20;;;-0.30;99.90;;;;;;5085543;28;20068;-74
2023/03/13 03:33:42;;;;;;;0.20;0.20;;;-0.30;99.90;;;;;;5102119;28;20023;-74
2023/03/13 03:36:14;;;;;;;0.20;0.20;;;-0.30;99.90;;;;;;5102638;28;20020;-74
2023/03/13 03:38:45;;;;;;;0.20;0.20;;;-0.30;99.90;;;;;;5105607;28;20027;-75
2023/03/13 03:41:13;;;;;;;8.27;7.50;;;-0.30;99.90;;;;;;5101287;28;20069;-74
2023/03/13 03:43:39;;;;;;;0.20;0.20;;;-0.30;99.90;;;;;;5102845;28;20026;-75
2023/03/13 03:46:05;;;;;;;0.17;0.17;;;-0.30;99.90;;;;;;5103613;28;20027;-75
2023/03/13 03:48:31;;;;;;;0.20;0.20;;;-0.20;99.90;;;;;;5101072;28;20134;-75
2023/03/13 03:50:57;;;;;;;0.10;0.10;;;-0.30;99.90;;;;;;5101870;28;20031;-74
2023/03/13 03:53:24;;;;;;;0.20;0.20;;;-0.30;99.90;;;;;;5099333;28;20116;-75
2023/03/13 03:55:50;;;;;;;0.20;0.20;;;-0.30;99.90;;;;;;5101956;28;20514;-76
2023/03/13 03:58:16;;;;;;;0.20;0.20;;;-0.30;99.90;;;;;;5100966;28;20321;-75
2023/03/13 04:00:46;;;;;;;0.20;0.20;;;-0.30;99.90;;;;;;5100976;28;20027;-75
2023/03/13 04:03:12;;;;;;;0.20;0.20;;;-0.30;99.90;;;;;;5100622;28;20091;-75
2023/03/13 04:05:38;;;;;;;0.20;0.20;;;-0.30;99.90;;;;;;5100766;28;20076;-74
2023/03/13 04:08:05;;;;;;;0.20;0.20;;;-0.30;99.90;;;;;;5101049;28;20082;-75
2023/03/13 04:10:30;;;;;;;0.10;0.10;;;-0.30;99.90;;;;;;5101181;28;20058;-75
2023/03/13 04:12:56;;;;;;;13.67;12.87;;;-0.30;99.90;;;;;;5099794;28;20095;-75
2023/03/13 04:15:22;;;;;;;0.20;0.20;;;-0.30;99.90;;;;;;5100308;28;20023;-74
2023/03/13 04:17:51;;;;;;;0.20;0.20;;;-0.40;99.90;;;;;;5100647;28;20693;-75
2023/03/13 04:20:17;;;;;;;0.20;0.20;;;-0.30;99.90;;;;;;5099713;28;20092;-75
2023/03/13 04:22:43;;;;;;;0.20;0.20;;;-0.30;99.90;;;;;;5099652;28;20445;-75
2023/03/13 04:25:09;;;;;;;0.20;0.20;;;-0.30;99.90;;;;;;5100039;28;20028;-76
2023/03/13 04:27:35;;;;;;;0.20;0.20;;;-0.30;99.90;;;;;;5081542;28;20035;-74
2023/03/13 04:30:01;;;;;;;0.20;0.20;;;-0.30;99.90;;;;;;5099142;28;20032;-75
2023/03/13 04:32:27;;;;;;;0.20;0.20;;;-0.30;99.90;;;;;;5101506;28;20089;-74
2023/03/13 04:34:52;;;;;;;0.27;0.27;;;-0.20;99.90;;;;;;5103674;28;20023;-75
2023/03/13 04:37:18;;;;;;;0.30;0.30;;;-0.30;99.90;;;;;;5103991;28;20023;-75
2023/03/13 04:39:46;;;;;;;0.13;0.13;;;;;;;;;;5104329;28;20165;-75
2023/03/13 04:42:12;;;;;;;0.20;0.20;;;-0.20;99.90;;;;;;5103812;28;20059;-75
2023/03/13 04:44:41;;;;;;;0.20;0.20;;;-0.20;99.90;;;;;;5104212;28;20032;-74
2023/03/13 04:47:06;;;;;;;0.20;0.20;;;-0.20;99.90;;;;;;5102035;28;20054;-75
2023/03/13 04:49:33;;;;;;;0.20;0.20;;;-0.20;99.90;;;;;;5109136;28;20011;-75
2023/03/13 04:51:59;;;;;;;0.20;0.20;;;-0.10;99.90;;;;;;5111407;28;20023;-75
2023/03/13 04:54:25;;;;;;;0.30;0.30;;;-0.10;99.90;;;;;;5111662;28;20474;-76
2023/03/13 04:56:51;;;;;;;0.20;0.20;;;-0.10;99.90;;;;;;5111054;28;20596;-75
2023/03/13 04:59:17;;;;;;;0.10;0.10;;;-0.10;99.90;;;;;;5104343;28;20024;-75
2023/03/13 05:01:43;;;;;;;0.20;0.20;;;;;;;;;;5104437;28;20067;-75
2023/03/13 05:04:10;;;;;;;0.20;0.20;;;0.00;99.90;;;;;;5102827;28;20091;-75
2023/03/13 05:06:36;;;;;;;0.20;0.20;;;-0.10;99.90;;;;;;5102974;28;20336;-75
2023/03/13 05:09:02;;;;;;;18.20;4.73;;;0.00;99.90;;;;;;5104538;28;20139;-75
2023/03/13 05:11:29;;;;;;;0.20;0.20;;;1.10;99.90;;;;;;5103651;28;20102;-75
2023/03/13 05:13:54;;;;;;;1.50;1.37;;;0.00;99.90;;;;;;5103448;28;20028;-75
2023/03/13 05:16:20;;;;;;;0.20;0.20;;;0.00;99.90;;;;;;5103194;28;20026;-75
2023/03/13 05:18:46;;;;;;;0.70;0.70;;;0.00;99.90;;;;;;5103753;28;20358;-75
2023/03/13 05:21:12;;;;;;;3.30;3.20;;;0.10;99.90;;;;;;5104008;28;20433;-74
2023/03/13 05:23:39;;;;;;;9.07;8.70;;;0.10;99.90;;;;;;5103529;27;20023;-75
2023/03/13 05:26:04;;;;;;;0.20;0.20;;;-0.20;99.90;;;;;;5103379;28;20026;-75
2023/03/13 05:28:30;;;;;;;0.20;0.20;;;0.10;99.90;;;;;;5104410;28;20479;-75
2023/03/13 05:30:56;;;;;;;0.20;0.20;;;0.10;99.90;;;;;;5104088;28;20027;-75
2023/03/13 05:33:22;;;;;;;0.27;0.27;;;0.10;99.90;;;;;;5102776;28;20055;-76
2023/03/13 05:35:48;;;;;;;0.20;0.20;;;0.10;99.90;;;;;;5102989;28;20322;-75
2023/03/13 05:38:14;;;;;;;0.20;0.20;;;0.00;99.90;;;;;;5103616;28;20299;-75
2023/03/13 05:40:40;;;;;;;0.20;0.20;;;;;;;;;;5103980;28;20048;-74
2023/03/13 05:43:06;;;;;;;0.30;0.30;;;0.20;99.90;;;;;;5103749;28;20027;-75
2023/03/13 05:45:32;;;;;;;0.20;0.20;;;;;;;;;;5103515;28;20639;-74
2023/03/13 05:47:58;;;;;;;0.20;0.20;;;0.30;99.90;;;;;;5103814;28;20031;-75
2023/03/13 05:50:24;;;;;;;0.20;0.20;;;0.50;99.90;;;;;;5102663;28;20020;-75
2023/03/13 05:52:51;;;;;;;0.20;0.20;;;0.40;99.90;;;;;;5105595;28;20232;-75
2023/03/13 05:55:19;;;;;;;0.20;0.20;;;;;;;;;;5100495;28;20169;-75
2023/03/13 05:57:46;;;;;;;0.20;0.20;;;0.20;99.90;;;;;;5104733;28;20027;-75
2023/03/13 06:00:13;;;;;;;0.20;0.20;;;0.20;99.90;;;;;;5105125;28;20311;-75
2023/03/13 06:02:39;;;;;;;0.20;0.20;;;0.30;99.90;;;;;;5103395;28;20031;-75
2023/03/13 06:05:05;;;;;;;0.20;0.20;;;0.40;99.90;;;;;;5102864;28;20024;-75
2023/03/13 06:07:31;;;;;;;0.20;0.20;;;0.50;99.90;;;;;;5103787;28;20053;-75
2023/03/13 06:09:57;;;;;;;0.20;0.20;;;0.60;99.90;;;;;;5103275;28;20016;-75
2023/03/13 06:12:23;;;;;;;0.20;0.20;;;0.50;99.90;;;;;;5103912;28;20023;-74
2023/03/13 06:14:48;;;;;;;0.20;0.20;;;-2.00;99.90;;;;;;5103739;28;20119;-75
2023/03/13 06:17:14;;;;;;;0.20;0.20;;;0.50;99.90;;;;;;5103582;28;20594;-75
2023/03/13 06:19:40;;;;;;;0.20;0.20;;;0.50;99.90;;;;;;5103466;28;20532;-75
2023/03/13 06:22:06;;;;;;;0.20;0.20;;;1.00;99.90;;;;;;5102583;28;20027;-75
2023/03/13 06:24:31;;;;;;;0.20;0.20;;;0.70;99.90;;;;;;5102831;28;20643;-75
2023/03/13 06:26:57;;;;;;;0.20;0.20;;;0.80;99.90;;;;;;5103544;28;20296;-75
2023/03/13 06:29:24;;;;;;;0.20;0.20;;;1.00;99.90;;;;;;5103669;28;20156;-75
2023/03/13 06:31:50;;;;;;;0.20;0.20;;;1.10;99.90;;;;;;5102233;28;20478;-75
2023/03/13 06:34:16;;;;;;;0.20;0.20;;;1.10;99.90;;;;;;5104130;28;20023;-76
2023/03/13 06:36:42;;;;;;;0.10;0.10;;;1.20;99.90;;;;;;5102912;28;20020;-75
2023/03/13 06:39:09;;;;;;;7.40;5.63;;;1.40;99.90;;;;;;5101101;28;20036;-75
2023/03/13 06:41:35;;;;;;;0.20;0.20;;;1.40;99.90;;;;;;5103013;28;20099;-75
2023/03/13 06:44:01;;;;;;;0.15;0.15;;;1.50;99.90;;;;;;5102428;28;20114;-75
2023/03/13 06:46:27;;;;;;;1.48;1.42;;;1.60;99.90;;;;;;5101898;28;20463;-75
2023/03/13 06:48:52;;;;;;;0.20;0.20;;;1.80;99.90;;;;;;5102650;28;20024;-75
2023/03/13 06:51:21;;;;;;;0.35;0.35;;;1.90;99.90;;;;;;5103566;28;20038;-75
2023/03/13 06:53:47;;;;;;;0.10;0.10;;;2.00;99.90;;;;;;5102677;28;20024;-75
2023/03/13 06:56:13;;;;;;;0.45;0.45;;;2.10;99.90;;;;;;5102297;28;20023;-75
2023/03/13 06:58:39;;;;;;;0.82;0.52;;;2.20;99.90;;;;;;5103350;28;20181;-75
2023/03/13 07:01:07;;;;;;;0.20;0.20;;;2.40;99.90;;;;;;5103195;28;20307;-75
2023/03/13 07:03:34;;;;;;;0.20;0.20;;;2.50;99.90;;;;;;5102139;28;20107;-75
2023/03/13 07:06:00;;;;;;;0.20;0.20;;;2.50;99.90;;;;;;5102657;28;20078;-75
2023/03/13 07:08:27;;;;;;;0.73;0.73;;;2.60;99.90;;;;;;5102497;28;20428;-75
2023/03/13 07:10:57;;;;;;;0.20;0.20;;;2.70;99.90;;;;;;5103008;28;20024;-75
2023/03/13 07:13:23;;;;;;;0.20;0.20;;;2.80;99.90;;;;;;5101904;28;20463;-75
2023/03/13 07:15:49;;;;;;;0.20;0.20;;;2.90;99.90;;;;;;5103755;28;20592;-75
2023/03/13 07:18:16;;;;;;;0.20;0.20;;;3.10;99.90;;;;;;5105754;28;20130;-75
2023/03/13 07:20:42;;;;;;;0.10;0.10;;;3.10;99.90;;;;;;5101066;28;20040;-75
2023/03/13 07:23:08;;;;;;;0.10;0.10;;;3.20;99.90;;;;;;5084187;28;20019;-75
2023/03/13 07:25:34;;;;;;;0.20;0.20;;;3.20;99.90;;;;;;5104606;28;20227;-75
2023/03/13 07:28:01;;;;;;;2.88;2.78;;;3.40;99.90;;;;;;5102052;28;20043;-75
2023/03/13 07:30:29;;;;;;;0.10;0.10;;;3.40;99.90;;;;;;5103641;28;20458;-75
2023/03/13 07:32:55;;;;;;;0.10;0.10;;;3.50;99.90;;;;;;5102221;28;20046;-75
2023/03/13 07:35:24;;;;;;;3.03;2.92;;;3.50;99.90;;;;;;5103643;28;20023;-75
2023/03/13 07:37:50;;;;;;;0.20;0.20;;;5.30;99.90;;;;;;5102392;28;20107;-74
2023/03/13 07:40:16;;;;;;;0.13;0.13;;;2.20;99.90;;;;;;5103827;28;20019;-75
2023/03/13 07:42:43;;;;;;;0.20;0.20;;;4.00;99.90;;;;;;5102285;28;20230;-75
2023/03/13 07:45:09;;;;;;;0.10;0.10;;;4.80;99.90;;;;;;5100639;28;20088;-75
2023/03/13 07:47:35;;;;;;;0.30;0.30;;;4.30;99.90;;;;;;5101184;28;20047;-75
2023/03/13 07:50:01;;;;;;;0.10;0.10;;;4.40;99.90;;;;;;5102040;28;20015;-75
2023/03/13 07:52:27;;;;;;;0.28;0.28;;;4.20;99.90;;;;;;5102534;28;20513;-75
2023/03/13 07:54:53;;;;;;;0.13;0.13;;;4.40;99.90;;;;;;5102507;28;20181;-75
2023/03/13 07:57:19;;;;;;;0.20;0.20;;;4.60;99.90;;;;;;5103235;28;20074;-75
2023/03/13 07:59:45;;;;;;;0.10;0.10;;;5.60;99.90;;;;;;5102807;28;20093;-75
2023/03/13 08:02:15;;;;;;;0.63;0.63;;;4.80;99.90;;;;;;5101515;28;20028;-75
2023/03/13 08:04:40;;;;;;;0.47;0.47;;;5.00;99.90;;;;;;5106438;28;20513;-76
2023/03/13 08:07:10;;;;;;;0.10;0.10;;;5.20;99.90;;;;;;5108033;28;20240;-75
2023/03/13 08:09:36;;;;;;;1.10;1.10;;;5.60;99.90;;;;;;5090817;28;20038;-75
2023/03/13 08:12:02;;;;;;;0.10;0.10;;;5.60;99.90;;;;;;5107562;28;20106;-75
2023/03/13 08:14:29;;;;;;;0.10;0.10;;;5.80;99.90;;;;;;5101506;28;20031;-75
2023/03/13 08:17:00;;;;;;;0.00;0.00;;;5.70;99.90;;;;;;5105207;28;20024;-77
2023/03/13 08:19:26;;;;;;;2.80;2.72;;;5.80;99.90;;;;;;5103216;28;20012;-75
2023/03/13 08:21:51;;;;;;;0.10;0.10;;;6.20;99.90;;;;;;5100460;28;20330;-75
2023/03/13 08:24:17;;;;;;;6.50;6.05;;;6.50;99.90;;;;;;5100822;28;20319;-74
2023/03/13 08:26:43;;;;;;;0.10;0.10;;;6.80;99.90;;;;;;5098738;28;20028;-75
2023/03/13 08:29:11;;;;;;;0.00;0.00;;;6.90;99.70;;;;;;5100012;28;20102;-75
2023/03/13 08:31:46;;;;;;;0.00;0.00;;;6.80;97.20;;;;;;5080929;28;20023;-75
2023/03/13 08:34:13;;;;;;;0.00;0.00;;;6.70;97.80;;;;;;5099473;28;20084;-75
2023/03/13 08:36:40;;;;;;;0.00;0.00;;;4.10;97.40;;;;;;5100493;28;20326;-75
2023/03/13 08:39:13;;;;;;;0.00;0.00;;;7.00;97.20;;;;;;5101339;28;20035;-75
2023/03/13 08:41:42;;;;;;;1.80;1.70;;;7.20;96.50;;;;;;5100251;28;20483;-75
2023/03/13 08:44:10;;;;;;;0.08;0.08;;;7.40;94.10;;;;;;5100414;28;20579;-75
2023/03/13 08:46:37;;;;;;;0.00;0.00;;;7.40;96.40;;;;;;5101556;28;20030;-75
2023/03/13 08:49:05;;;;;;;0.15;0.15;;;7.70;94.70;;;;;;5100064;28;20747;-75
2023/03/13 08:51:32;;;;;;;0.40;0.38;;;7.80;93.80;;;;;;5101046;28;20024;-75
2023/03/13 08:53:58;;;;;;;0.10;0.10;;;7.80;94.30;;;;;;5099473;28;20023;-75
2023/03/13 08:56:26;;;;;;;0.10;0.10;;;8.10;93.00;;;;;;5097707;28;20430;-75
2023/03/13 08:58:54;;;;;;;0.00;0.00;;;8.30;92.10;;;;;;5082527;28;20320;-75
2023/03/13 09:01:22;;;;;;;0.10;0.10;;;7.80;91.30;;;;;;5101889;28;20039;-75
2023/03/13 09:03:48;;;;;;;2.85;2.75;;;8.60;90.40;;;;;;5100616;28;20012;-75
2023/03/13 09:06:14;;;;;;;0.10;0.10;;;8.70;88.20;;;;;;5101285;28;20032;-75
2023/03/13 09:08:42;;;;;;;0.10;0.10;;;8.70;88.90;;;;;;5106517;28;20193;-75
2023/03/13 09:11:13;;;;;;;0.00;0.00;;;8.70;88.10;;;;;;5107058;28;20433;-75
2023/03/13 09:13:45;;;;;;;0.00;0.00;;;8.90;87.00;;;;;;5107318;28;20024;-75
2023/03/13 09:16:19;;;;;;;0.10;0.10;;;8.90;87.40;;;;;;5087642;28;20363;-75
2023/03/13 09:18:49;;;;;;;0.25;0.25;;;9.10;86.60;;;;;;5100742;28;20028;-75
2023/03/13 09:21:17;;;;;;;0.10;0.10;;;9.30;85.80;;;;;;5114501;28;20019;-75
2023/03/13 09:23:45;;;;;;;0.13;0.13;;;9.20;84.80;;;;;;5106607;28;20047;-75
2023/03/13 09:26:13;;;;;;;1.05;1.05;;;9.20;83.30;;;;;;5105460;28;20076;-75
2023/03/13 09:28:42;;;;;;;0.10;0.10;;;9.30;84.30;;;;;;5105358;28;20216;-75
2023/03/13 09:31:28;;;;;;;0.10;0.10;;;9.40;84.00;;;;;;5103842;28;20213;-75
2023/03/13 09:33:54;;;;;;;37.15;33.63;;;7.40;82.80;;;;;;5103509;28;20023;-75
2023/03/13 09:36:22;;;;;;;0.20;0.20;;;9.50;84.30;;;;;;5087410;28;20031;-76
2023/03/13 09:38:53;;;;;;;0.10;0.10;;;9.70;83.80;;;;;;5103831;28;20016;-75
2023/03/13 09:41:46;;;;;;;0.13;0.13;;;10.00;84.30;;;;;;5103666;28;20028;-75
2023/03/13 09:44:20;;;;;;;3.33;3.20;;;10.10;83.60;;;;;;5103778;28;20030;-75
2023/03/13 09:46:52;;;;;;;0.40;0.40;;;10.20;82.60;;;;;;5102825;28;20103;-75
2023/03/13 09:49:44;;;;;;;0.20;0.20;;;10.10;82.30;;;;;;5103980;28;20340;-75
2023/03/13 09:52:39;;;;;;;0.15;0.15;;;10.30;83.60;;;;;;5104662;28;20036;-75
2023/03/13 09:55:44;;;;;;;0.10;0.10;;;10.50;81.10;;;;;;5084903;28;20046;-75
2023/03/13 09:58:33;;;;;;;0.10;0.10;;;10.40;81.60;;;;;;5103620;28;20627;-75
2023/03/13 10:01:03;;;;;;;3.33;3.20;;;10.60;80.60;;;;;;5019708;28;20374;-76
2023/03/13 10:03:47;;;;;;;0.63;0.63;;;10.70;80.10;;;;;;5019900;28;20265;-75
2023/03/13 10:06:18;;;;;;;0.20;0.20;;;10.90;78.00;;;;;;5020870;28;20034;-75
2023/03/13 10:08:46;;;;;;;4.68;4.38;;;11.20;80.00;;;;;;5009133;28;20038;-76
2023/03/13 10:11:34;;;;;;;2.60;2.50;;;11.50;77.80;;;;;;5010478;28;20290;-76
2023/03/13 10:14:16;;;;;;;2.25;2.15;;;11.20;78.00;;;;;;5020494;28;20033;-75
2023/03/13 10:16:48;;;;;;;0.10;0.10;;;11.50;76.10;;;;;;5021360;28;20334;-78
2023/03/13 10:19:21;;;;;;;0.10;0.10;;;11.70;77.10;;;;;;5003154;28;20107;-76
2023/03/13 10:21:50;;;;;;;2.83;2.72;;;11.60;76.00;;;;;;5019136;28;20326;-76
2023/03/13 10:24:29;;;;;;;2.20;2.08;;;11.80;75.40;;;;;;5018705;28;20525;-76
2023/03/13 10:26:56;;;;;;;1.45;1.35;;;11.70;79.70;;;;;;5017353;28;20524;-76
2023/03/13 10:29:25;;;;;;;0.10;0.10;;;12.10;80.00;;;;;;5016429;28;20045;-77
2023/03/13 10:32:11;;;;;;;1.73;1.63;;;12.30;78.10;;;;;;5017382;28;20679;-80
2023/03/13 10:35:00;;;;;;;3.45;3.15;;;13.00;71.70;;;;;;5017508;28;20128;-77
2023/03/13 10:37:29;;;;;;;0.20;0.20;;;12.90;72.70;;;;;;5017564;28;20043;-76
2023/03/13 10:40:23;;;;;;;0.20;0.20;;;13.60;72.50;;;;;;5078075;28;20016;-76
2023/03/13 10:42:51;;;;;;;0.15;0.15;;;13.90;68.80;;;;;;5079415;28;20537;-79
2023/03/13 10:45:20;;;;;;;0.65;0.65;;;13.80;69.50;;;;;;5079227;28;20012;-76
2023/03/13 10:47:54;;;;;;;0.30;0.30;;;13.40;68.50;;;;;;5078731;28;20229;-76
2023/03/13 10:50:21;;;;;;;;;;;14.40;68.10;;;;;;5079489;28;20027;-76
2023/03/13 10:52:48;;;;;;;0.52;0.52;;;14.40;67.90;;;;;;5079207;28;19991;-76
2023/03/13 10:55:23;;;;;;;0.17;0.17;;;14.30;67.20;;;;;;5079481;28;20031;-78
2023/03/13 10:58:04;;;;;;;0.20;0.20;;;14.50;64.70;;;;;;5078908;28;20063;-76
2023/03/13 11:00:37;;;;;;;0.38;0.38;;;14.50;67.50;;;;;;5079460;28;20055;-78
2023/03/13 11:03:16;;;;;;;0.85;0.85;;;14.90;65.20;;;;;;5079705;28;20020;-76
2023/03/13 11:05:43;;;;;;;0.40;0.40;;;14.80;65.60;;;;;;5081690;28;20042;-77
2023/03/13 11:08:15;;;;;;;0.20;0.20;;;15.10;67.50;;;;;;5098936;28;20031;-77
2023/03/13 11:10:54;;;;;;;0.43;0.43;;;15.60;62.00;;;;;;5099272;28;20252;-79
2023/03/13 11:13:38;;;;;;;2.15;2.05;;;15.70;63.60;;;;;;5099700;28;20082;-79
2023/03/13 11:16:12;;;;;;;7.15;4.30;;;15.50;61.90;;;;;;5080967;28;20100;-81
2023/03/13 11:19:12;;;;;;;0.10;0.10;;;15.50;65.00;;;;;;5099576;28;20312;-76
2023/03/13 11:22:06;;;;;;;0.17;0.17;;;15.60;62.50;;;;;;5100113;28;20333;-77
2023/03/13 11:24:59;;;;;;;0.10;0.10;;;16.10;63.20;;;;;;5101180;28;20016;-76
2023/03/13 11:27:49;;;;;;;0.10;0.10;;;16.30;63.20;;;;;;5102507;28;20024;-77
2023/03/13 11:30:22;;;;;;;0.20;0.20;;;16.60;62.80;;;;;;5102840;28;20032;-83
2023/03/13 11:32:58;;;;;;;0.73;0.73;;;16.80;60.60;;;;;;5099533;28;20104;-79
2023/03/13 11:35:41;;;;;;;0.20;0.20;;;16.80;60.00;;;;;;5081922;28;20088;-84
2023/03/13 11:38:31;;;;;;;0.00;0.00;;;17.50;59.60;;;;;;5099606;28;20031;-83
2023/03/13 11:41:10;;;;;;;1.00;1.00;;;17.80;58.70;;;;;;5099385;28;20051;-88
2023/03/13 11:43:54;;;;;;;0.43;0.43;;;17.90;58.30;;;;;;5098832;28;20031;-76
2023/03/13 11:46:45;;;;;;;0.15;0.15;;;18.00;57.50;;;;;;5098558;28;20024;-76
2023/03/13 11:49:11;;;;;;;0.30;0.30;;;19.20;57.40;;;;;;5096855;28;20050;-81
2023/03/13 11:51:58;;;;;;;0.08;0.08;;;18.40;57.60;;;;;;5098867;28;20426;-78
2023/03/13 11:55:16;;;;;;;0.57;0.57;;;18.20;55.60;;;;;;5098122;28;20288;-82
2023/03/13 11:57:47;;;;;;;0.10;0.10;;;18.20;54.70;;;;;;5014952;28;20498;-77
2023/03/13 12:00:18;;;;;;;0.20;0.20;;;18.60;55.00;;;;;;5014743;28;20073;-76
2023/03/13 12:03:04;;;;;;;0.10;0.10;;;18.40;55.30;;;;;;5015131;28;20027;-81
2023/03/13 12:05:40;;;;;;;0.10;0.10;;;18.70;54.90;;;;;;5015244;28;20041;-79
2023/03/13 12:08:14;;;;;;;0.10;0.10;;;18.70;53.60;;;;;;5015139;28;20587;-79
2023/03/13 12:11:30;;;;;;;0.20;0.20;;;18.60;52.80;;;;;;5015581;28;20022;-84
2023/03/13 12:14:00;;;;;;;0.25;0.25;;;18.80;52.70;;;;;;4957774;28;20576;-81
2023/03/13 12:16:41;;;;;;;0.20;0.20;;;19.20;53.40;;;;;;4939845;28;20031;-76
2023/03/13 12:19:12;;;;;;;0.10;0.10;;;19.50;51.80;;;;;;4940102;28;20031;-75
2023/03/13 12:21:47;;;;;;;0.45;0.45;;;19.60;52.80;;;;;;4940299;28;20019;-76
2023/03/13 12:24:35;;;;;;;0.10;0.10;;;19.90;51.80;;;;;;4955889;28;20046;-78
2023/03/13 12:27:35;;;;;;;0.10;0.10;;;20.40;51.50;;;;;;4956830;28;20089;-76
2023/03/13 12:30:26;;;;;;;0.10;0.10;;;19.40;50.00;;;;;;4937232;28;20039;-78
2023/03/13 12:33:04;;;;;;;0.10;0.10;;;18.50;49.20;;;;;;4998211;28;20066;-77
2023/03/13 12:35:32;;;;;;;0.10;0.10;;;21.00;49.60;;;;;;4981616;28;20205;-77
2023/03/13 12:37:58;;;;;;;0.38;0.38;;;21.40;50.80;;;;;;4998553;28;20879;-77
2023/03/13 12:40:48;;;;;;;0.10;0.10;;;22.00;49.30;;;;;;4998917;28;20038;-75
2023/03/13 12:43:28;;;;;;;0.10;0.10;;;22.40;46.50;;;;;;4995912;28;20057;-76
2023/03/13 12:45:57;;;;;;;0.10;0.10;;;21.60;46.90;;;;;;4995016;28;20108;-76
2023/03/13 12:48:51;;;;;;;0.30;0.30;;;21.70;48.70;;;;;;5001780;28;20050;-75
2023/03/13 12:51:53;;;;;;;0.10;0.10;;;21.70;46.50;;;;;;5053254;28;20033;-75
2023/03/13 12:54:30;;;;;;;0.10;0.10;;;21.70;46.60;;;;;;5056666;28;20036;-75
2023/03/13 12:57:31;;;;;;;0.10;0.10;;;19.40;45.30;;;;;;5057889;28;20158;-77
2023/03/13 13:00:04;;;;;;;0.30;0.30;;;22.60;46.90;;;;;;5057306;28;20499;-75
2023/03/13 13:02:30;;;;;;;;;;;20.30;45.80;;;;;;5058170;28;20033;-75
2023/03/13 13:05:00;;;;;;;0.10;0.10;;;22.70;47.60;;;;;;5057729;28;20003;-77
2023/03/13 13:07:36;;;;;;;0.10;0.10;;;19.30;45.80;;;;;;5088542;28;20047;-76
2023/03/13 13:10:08;;;;;;;0.10;0.10;;;22.50;46.70;;;;;;5101728;28;20047;-76
2023/03/13 13:12:39;;;;;;;0.20;0.20;;;22.80;45.30;;;;;;5101120;28;20054;-75